createdAt,value
2022-10-19T00:02:11.685Z,9.03
2022-10-19T00:04:41.451Z,9.13
2022-10-19T00:07:11.170Z,9.70
2022-10-19T00:09:40.910Z,10.13
2022-10-19T00:12:13.202Z,8.88
2022-10-19T00:14:42.950Z,9.37
2022-10-19T00:17:12.695Z,12.17
2022-10-19T00:19:42.819Z,12.75
2022-10-19T00:22:14.028Z,9.85
2022-10-19T00:24:44.006Z,11.77
2022-10-19T00:27:13.735Z,5.33
2022-10-19T00:29:43.679Z,7.80
2022-10-19T00:32:13.250Z,6.93
2022-10-19T00:34:43.047Z,5.87
2022-10-19T00:37:12.769Z,3.37
2022-10-19T00:39:42.570Z,4.90
2022-10-19T00:42:13.418Z,7.92
2022-10-19T00:44:48.981Z,8.13
2022-10-19T00:47:21.564Z,4.13
2022-10-19T00:49:52.149Z,10.23
2022-10-19T00:52:24.849Z,7.70
2022-10-19T00:54:56.426Z,5.83
2022-10-19T00:57:29.520Z,9.23
2022-10-19T01:00:02.419Z,6.00
2022-10-19T01:02:32.532Z,5.37
2022-10-19T01:05:03.107Z,7.63
2022-10-19T01:07:33.506Z,9.40
2022-10-19T01:10:04.643Z,8.10
2022-10-19T01:12:46.467Z,6.47
2022-10-19T01:15:41.492Z,7.50
2022-10-19T01:18:29.276Z,3.80
2022-10-19T01:21:04.620Z,9.13
2022-10-19T01:23:55.583Z,8.70
2022-10-19T01:26:47.106Z,7.60
2022-10-19T01:29:36.262Z,7.13
2022-10-19T01:32:23.309Z,7.57
2022-10-19T01:35:20.080Z,7.28
2022-10-19T01:37:55.472Z,3.87
2022-10-19T01:43:16.229Z,6.58
2022-10-19T01:46:00.811Z,9.33
2022-10-19T01:48:33.454Z,6.97
2022-10-19T01:51:17.940Z,8.87
2022-10-19T01:53:50.839Z,6.55
2022-10-19T01:56:23.755Z,6.80
2022-10-19T01:58:56.267Z,4.50
2022-10-19T02:01:28.357Z,5.03
2022-10-19T02:03:59.411Z,14.97
2022-10-19T02:06:29.755Z,7.57
2022-10-19T02:09:00.013Z,8.70
2022-10-19T02:11:31.187Z,10.03
2022-10-19T02:14:03.974Z,9.33
2022-10-19T02:16:39.759Z,10.20
2022-10-19T02:19:10.939Z,15.60
2022-10-19T02:21:41.405Z,11.97
2022-10-19T02:24:12.949Z,10.90
2022-10-19T02:26:43.521Z,11.60
2022-10-19T02:29:15.871Z,7.07
2022-10-19T02:31:46.133Z,11.27
2022-10-19T02:34:16.058Z,7.47
2022-10-19T02:36:45.838Z,7.00
2022-10-19T02:39:15.639Z,7.03
2022-10-19T02:41:51.100Z,10.77
2022-10-19T02:44:23.643Z,9.83
2022-10-19T02:46:56.707Z,7.78
2022-10-19T02:49:28.172Z,9.27
2022-10-19T02:52:02.552Z,7.47
2022-10-19T02:54:32.301Z,6.57
2022-10-19T02:57:03.368Z,11.10
2022-10-19T02:59:33.396Z,7.90
2022-10-19T03:02:03.184Z,7.23
2022-10-19T03:04:32.986Z,6.83
2022-10-19T03:07:02.820Z,10.63
2022-10-19T03:09:32.257Z,9.73
2022-10-19T03:12:01.993Z,7.83
2022-10-19T03:14:31.736Z,5.87
2022-10-19T03:17:01.197Z,8.75
2022-10-19T03:19:31.468Z,5.80
2022-10-19T03:22:01.508Z,6.70
2022-10-19T03:24:34.469Z,5.83
2022-10-19T03:27:03.988Z,4.20
2022-10-19T03:29:33.717Z,5.37
2022-10-19T03:32:03.594Z,4.20
2022-10-19T03:34:33.633Z,5.20
2022-10-19T03:37:03.367Z,6.97
2022-10-19T03:39:33.384Z,3.83
2022-10-19T03:42:03.207Z,6.17
2022-10-19T03:44:33.014Z,6.77
2022-10-19T03:47:02.749Z,6.33
2022-10-19T03:49:34.626Z,6.87
2022-10-19T03:52:05.389Z,4.70
2022-10-19T03:54:35.159Z,6.00
2022-10-19T03:57:04.936Z,6.43
2022-10-19T03:59:34.689Z,6.40
2022-10-19T04:02:04.955Z,6.30
2022-10-19T04:04:34.718Z,7.53
2022-10-19T04:07:04.433Z,7.40
2022-10-19T04:09:34.168Z,8.40
2022-10-19T04:12:04.714Z,6.53
2022-10-19T04:14:52.429Z,7.07
2022-10-19T04:17:06.318Z,9.57
2022-10-19T04:19:36.042Z,9.50
2022-10-19T04:22:07.723Z,7.00
2022-10-19T04:24:37.482Z,8.50
2022-10-19T04:27:07.247Z,8.80
2022-10-19T04:29:37.057Z,7.83
2022-10-19T04:32:08.203Z,10.10
2022-10-19T04:34:39.983Z,10.67
2022-10-19T04:37:09.362Z,8.60
2022-10-19T04:39:41.051Z,13.57
2022-10-19T04:42:12.285Z,11.72
2022-10-19T04:44:42.326Z,12.07
2022-10-19T04:47:12.441Z,11.67
2022-10-19T04:49:42.480Z,12.55
2022-10-19T04:52:13.873Z,9.75
2022-10-19T04:54:43.961Z,8.40
2022-10-19T04:57:13.778Z,10.27
2022-10-19T04:59:43.800Z,9.40
2022-10-19T05:02:13.531Z,9.20
2022-10-19T05:04:45.169Z,11.30
2022-10-19T05:07:14.690Z,10.17
2022-10-19T05:09:44.437Z,9.63
2022-10-19T05:12:14.191Z,9.60
2022-10-19T05:14:43.954Z,11.47
2022-10-19T05:17:13.767Z,9.80
2022-10-19T05:19:43.857Z,6.63
2022-10-19T05:22:13.599Z,7.40
2022-10-19T05:24:43.627Z,8.03
2022-10-19T05:27:13.364Z,7.50
2022-10-19T05:29:43.153Z,4.80
2022-10-19T05:32:13.006Z,5.20
2022-10-19T05:34:42.796Z,5.97
2022-10-19T05:37:12.521Z,7.07
2022-10-19T05:39:42.530Z,7.30
2022-10-19T05:42:12.498Z,7.20
2022-10-19T05:44:42.507Z,8.13
2022-10-19T05:47:12.316Z,5.80
2022-10-19T05:49:42.340Z,6.22
2022-10-19T05:52:13.705Z,6.22
2022-10-19T05:54:43.727Z,6.03
2022-10-19T05:57:13.502Z,5.80
2022-10-19T05:59:43.546Z,7.80
2022-10-19T06:02:15.529Z,7.15
2022-10-19T06:04:45.314Z,6.23
2022-10-19T06:07:15.332Z,4.78
2022-10-19T06:09:45.920Z,6.33
2022-10-19T06:12:16.349Z,5.20
2022-10-19T06:17:16.180Z,5.10
2022-10-19T06:19:46.195Z,7.65
2022-10-19T06:22:16.034Z,8.90
2022-10-19T06:24:46.058Z,5.47
2022-10-19T06:27:15.586Z,7.20
2022-10-19T06:29:45.351Z,7.03
2022-10-19T06:32:15.398Z,10.90
2022-10-19T06:34:45.143Z,6.63
2022-10-19T06:37:14.910Z,8.83
2022-10-19T06:39:44.718Z,10.20
2022-10-19T06:42:15.533Z,12.34
2022-10-19T06:44:45.656Z,13.32
2022-10-19T06:47:15.702Z,16.55
2022-10-19T06:49:45.441Z,16.53
2022-10-19T06:52:15.366Z,18.20
2022-10-19T06:54:45.112Z,18.83
2022-10-19T06:57:14.860Z,16.47
2022-10-19T06:59:45.076Z,21.30
2022-10-19T07:02:14.649Z,21.70
2022-10-19T07:04:44.528Z,16.60
2022-10-19T07:07:14.291Z,22.67
2022-10-19T07:09:44.336Z,16.95
2022-10-19T07:12:13.889Z,22.53
2022-10-19T07:14:43.734Z,22.37
2022-10-19T07:17:13.658Z,23.73
2022-10-19T07:19:43.718Z,23.67
2022-10-19T07:22:19.150Z,22.24
2022-10-19T07:24:45.434Z,19.37
2022-10-19T07:27:15.596Z,19.50
2022-10-19T07:29:45.432Z,22.40
2022-10-19T07:32:15.258Z,21.42
2022-10-19T07:34:45.047Z,18.77
2022-10-19T07:37:14.771Z,17.50
2022-10-19T07:39:44.511Z,15.57
2022-10-19T07:42:14.129Z,18.20
2022-10-19T07:44:44.216Z,16.90
2022-10-19T07:47:14.271Z,16.12
2022-10-19T07:49:44.293Z,15.68
2022-10-19T07:52:14.121Z,11.63
2022-10-19T07:54:43.915Z,11.90
2022-10-19T07:57:13.656Z,12.00
2022-10-19T07:59:43.493Z,11.70
2022-10-19T08:02:17.972Z,11.70
2022-10-19T08:05:00.264Z,12.73
2022-10-19T08:07:19.583Z,12.33
2022-10-19T08:09:54.078Z,13.25
2022-10-19T08:12:20.986Z,12.07
2022-10-19T08:14:50.844Z,12.07
2022-10-19T08:17:20.665Z,11.23
2022-10-19T08:19:50.439Z,12.63
2022-10-19T08:22:20.199Z,12.90
2022-10-19T08:24:50.372Z,12.85
2022-10-19T08:27:20.126Z,12.47
2022-10-19T08:29:51.446Z,13.03
2022-10-19T08:32:21.422Z,16.62
2022-10-19T08:34:51.194Z,12.90
2022-10-19T08:37:40.128Z,12.28
2022-10-19T08:39:52.384Z,14.43
2022-10-19T08:42:25.196Z,14.47
2022-10-19T08:45:16.087Z,15.20
2022-10-19T08:48:00.846Z,18.57
2022-10-19T08:50:39.290Z,17.40
2022-10-19T08:53:18.000Z,13.23
2022-10-19T08:56:08.720Z,12.93
2022-10-19T08:58:56.086Z,9.93
2022-10-19T09:01:43.455Z,7.70
2022-10-19T09:04:26.759Z,12.87
2022-10-19T09:07:01.972Z,13.40
2022-10-19T09:09:34.180Z,11.90
2022-10-19T09:12:07.257Z,7.30
2022-10-19T09:14:54.697Z,9.10
2022-10-19T09:17:25.336Z,8.37
2022-10-19T09:19:55.110Z,8.57
2022-10-19T09:22:36.453Z,7.53
2022-10-19T09:25:21.653Z,4.47
2022-10-19T09:27:54.446Z,7.07
2022-10-19T09:30:25.651Z,6.30
2022-10-19T09:33:02.842Z,9.27
2022-10-19T09:35:38.145Z,6.90
2022-10-19T09:38:08.402Z,6.47
2022-10-19T09:40:38.214Z,3.07
2022-10-19T09:43:11.580Z,8.30
2022-10-19T09:46:13.889Z,3.57
2022-10-19T09:48:53.118Z,6.47
2022-10-19T09:51:23.730Z,5.70
2022-10-19T09:53:59.695Z,8.40
2022-10-19T09:56:29.506Z,3.95
2022-10-19T09:58:59.933Z,5.10
2022-10-19T10:01:41.691Z,6.03
2022-10-19T10:04:09.852Z,7.50
2022-10-19T10:06:40.614Z,4.07
2022-10-19T10:09:19.142Z,3.40
2022-10-19T10:11:51.729Z,4.40
2022-10-19T10:14:31.646Z,5.17
2022-10-19T10:17:07.697Z,6.30
2022-10-19T10:19:37.908Z,8.40
2022-10-19T10:22:10.688Z,6.33
2022-10-19T10:24:43.476Z,3.93
2022-10-19T10:27:16.263Z,5.47
2022-10-19T10:29:49.354Z,4.15
2022-10-19T10:32:22.737Z,3.47
2022-10-19T10:35:04.703Z,3.83
2022-10-19T10:37:46.320Z,5.47
2022-10-19T10:40:23.648Z,4.27
2022-10-19T10:42:55.915Z,7.72
2022-10-19T10:45:43.164Z,3.27
2022-10-19T10:48:31.814Z,5.30
2022-10-19T10:51:02.987Z,5.17
2022-10-19T10:53:39.200Z,3.87
2022-10-19T10:56:16.383Z,3.35
2022-10-19T10:58:49.181Z,2.87
2022-10-19T11:01:24.740Z,5.80
2022-10-19T11:03:57.821Z,1.87
2022-10-19T11:06:27.603Z,5.23
2022-10-19T11:09:28.465Z,2.70
2022-10-19T11:12:01.535Z,5.05
2022-10-19T11:14:39.734Z,3.87
2022-10-19T11:17:12.523Z,3.87
2022-10-19T11:19:45.250Z,5.37
2022-10-19T11:22:37.964Z,6.87
2022-10-19T11:25:29.080Z,5.23
2022-10-19T11:28:11.409Z,5.30
2022-10-19T11:31:02.205Z,3.43
2022-10-19T11:36:27.362Z,4.05
2022-10-19T11:39:02.886Z,6.83
2022-10-19T11:41:44.085Z,7.10
2022-10-19T11:44:31.434Z,5.50
2022-10-19T11:47:12.355Z,7.20
2022-10-19T11:55:21.829Z,3.33
2022-10-19T11:58:07.369Z,6.00
2022-10-19T12:00:48.927Z,6.73
2022-10-19T12:03:24.909Z,3.87
2022-10-19T12:06:07.593Z,4.53
2022-10-19T12:08:58.247Z,4.03
2022-10-19T12:11:45.926Z,3.10
2022-10-19T12:14:42.038Z,3.86
2022-10-19T12:17:17.331Z,2.80
2022-10-19T12:19:53.080Z,3.47
2022-10-19T12:22:25.888Z,5.27
2022-10-19T12:24:57.799Z,6.97
2022-10-19T12:27:39.858Z,8.00
2022-10-19T12:30:18.264Z,7.40
2022-10-19T12:33:07.058Z,4.83
2022-10-19T12:35:45.615Z,5.63
2022-10-19T12:38:21.238Z,6.55
2022-10-19T12:40:54.012Z,6.10
2022-10-19T12:43:29.850Z,4.80
2022-10-19T12:46:24.719Z,4.97
2022-10-19T12:49:29.473Z,5.95
2022-10-19T12:52:01.567Z,6.90
2022-10-19T12:54:34.877Z,7.90
2022-10-19T12:57:07.440Z,9.78
2022-10-19T12:59:38.400Z,7.40
2022-10-19T13:02:11.189Z,3.93
2022-10-19T13:04:42.431Z,3.50
2022-10-19T13:07:15.513Z,3.08
2022-10-19T13:09:48.349Z,4.87
2022-10-19T13:12:25.637Z,3.47
2022-10-19T13:15:05.014Z,7.08
2022-10-19T13:17:38.117Z,4.78
2022-10-19T13:20:19.645Z,2.00
2022-10-19T13:23:04.271Z,4.50
2022-10-19T13:25:41.007Z,4.90
2022-10-19T13:30:44.973Z,3.22
2022-10-19T13:33:31.699Z,2.72
2022-10-19T13:36:04.561Z,5.67
2022-10-19T13:41:25.578Z,3.60
2022-10-19T13:44:14.287Z,4.57
2022-10-19T13:47:06.684Z,5.35
2022-10-19T13:49:57.425Z,6.63
2022-10-19T13:52:57.016Z,4.00
2022-10-19T13:55:47.322Z,3.80
2022-10-19T13:58:30.279Z,5.12
2022-10-19T14:01:24.066Z,3.57
2022-10-19T14:04:05.739Z,4.20
2022-10-19T14:06:41.308Z,4.90
2022-10-19T14:09:16.848Z,4.07
2022-10-19T14:11:49.161Z,5.23
2022-10-19T14:14:24.325Z,3.50
2022-10-19T14:16:59.703Z,5.13
2022-10-19T14:19:31.546Z,6.40
2022-10-19T14:22:04.322Z,3.13
2022-10-19T14:24:36.896Z,3.85
2022-10-19T14:27:08.556Z,3.63
2022-10-19T14:29:50.334Z,3.37
2022-10-19T14:32:28.635Z,6.17
2022-10-19T14:35:01.281Z,5.65
2022-10-19T14:37:31.158Z,5.10
2022-10-19T14:40:06.814Z,5.17
2022-10-19T14:42:44.806Z,2.60
2022-10-19T14:45:23.029Z,5.42
2022-10-19T14:48:02.074Z,3.77
2022-10-19T14:50:52.774Z,5.78
2022-10-19T14:53:40.490Z,8.17
2022-10-19T14:56:18.857Z,5.20
2022-10-19T14:58:51.628Z,3.80
2022-10-19T15:01:22.153Z,8.43
2022-10-19T15:03:52.489Z,2.43
2022-10-19T15:06:27.658Z,5.30
2022-10-19T15:09:00.783Z,4.60
2022-10-19T15:11:36.175Z,4.60
2022-10-19T15:14:08.665Z,8.07
2022-10-19T15:16:46.883Z,5.80
2022-10-19T15:19:21.921Z,3.25
2022-10-19T15:22:10.392Z,6.67
2022-10-19T15:24:41.390Z,4.33
2022-10-19T15:27:13.797Z,4.20
2022-10-19T15:29:46.587Z,8.43
2022-10-19T15:32:22.780Z,6.92
2022-10-19T15:34:52.927Z,8.07
2022-10-19T15:37:27.920Z,9.05
2022-10-19T15:39:56.302Z,7.00
2022-10-19T15:42:44.234Z,8.18
2022-10-19T15:45:38.518Z,8.58
2022-10-19T15:48:28.158Z,6.27
2022-10-19T15:50:58.756Z,4.85
2022-10-19T15:53:28.961Z,8.20
2022-10-19T15:55:59.728Z,9.13
2022-10-19T15:58:29.480Z,6.10
2022-10-19T16:00:59.024Z,9.20
2022-10-19T16:03:28.769Z,6.17
2022-10-19T16:05:58.481Z,4.37
2022-10-19T16:08:28.288Z,6.70
2022-10-19T16:10:58.034Z,5.50
2022-10-19T16:13:27.612Z,7.55
2022-10-19T16:16:10.632Z,11.95
2022-10-19T16:18:34.815Z,9.33
2022-10-19T16:21:04.903Z,6.73
2022-10-19T16:23:39.382Z,9.65
2022-10-19T16:26:08.691Z,15.38
2022-10-19T16:28:38.852Z,8.77
2022-10-19T16:31:08.769Z,5.43
2022-10-19T16:33:38.597Z,7.83
2022-10-19T16:36:09.377Z,8.47
2022-10-19T16:38:39.124Z,5.37
2022-10-19T16:41:10.991Z,5.83
2022-10-19T16:43:41.198Z,5.40
2022-10-19T16:46:11.645Z,7.28
2022-10-19T16:48:41.426Z,5.07
2022-10-19T16:51:14.208Z,5.73
2022-10-19T16:53:43.707Z,4.50
2022-10-19T16:56:15.234Z,7.72
2022-10-19T16:58:44.685Z,5.87
2022-10-19T17:01:17.580Z,6.07
2022-10-19T17:03:48.541Z,6.00
2022-10-19T17:06:19.209Z,6.68
2022-10-19T17:11:24.181Z,7.33
2022-10-19T17:13:56.678Z,5.77
2022-10-19T17:16:28.239Z,5.40
2022-10-19T17:19:00.217Z,4.80
2022-10-19T17:21:32.494Z,4.73
2022-10-19T17:24:05.352Z,9.03
2022-10-19T17:26:38.419Z,4.43
2022-10-19T17:29:08.826Z,5.80
2022-10-19T17:31:39.995Z,8.43
2022-10-19T17:34:12.108Z,6.93
2022-10-19T17:36:44.996Z,6.40
2022-10-19T17:39:18.166Z,4.90
2022-10-19T17:41:49.037Z,5.13
2022-10-19T17:44:21.032Z,7.57
2022-10-19T17:46:51.076Z,5.92
2022-10-19T17:49:21.094Z,5.90
2022-10-19T17:51:53.367Z,6.27
2022-10-19T17:54:23.211Z,4.62
2022-10-19T17:56:53.038Z,6.47
2022-10-19T17:59:34.609Z,6.07
2022-10-19T18:01:54.211Z,12.73
2022-10-19T18:04:24.003Z,3.90
2022-10-19T18:06:54.072Z,9.60
2022-10-19T18:09:23.821Z,10.63
2022-10-19T18:11:53.572Z,5.27
2022-10-19T18:14:23.205Z,6.72
2022-10-19T18:16:53.301Z,6.75
2022-10-19T18:19:23.138Z,6.73
2022-10-19T18:21:53.317Z,5.50
2022-10-19T18:24:23.067Z,6.70
2022-10-19T18:26:53.083Z,10.70
2022-10-19T18:29:25.369Z,8.30
2022-10-19T18:31:55.529Z,7.17
2022-10-19T18:34:27.202Z,7.35
2022-10-19T18:36:56.964Z,7.27
2022-10-19T18:39:26.711Z,8.07
2022-10-19T18:41:56.545Z,10.97
2022-10-19T18:44:27.373Z,4.12
2022-10-19T18:46:58.730Z,5.47
2022-10-19T18:49:28.513Z,6.90
2022-10-19T18:51:58.241Z,8.10
2022-10-19T18:54:28.130Z,10.97
2022-10-19T18:56:58.217Z,11.33
2022-10-19T19:01:58.366Z,7.20
2022-10-19T19:04:27.809Z,8.17
2022-10-19T19:06:57.549Z,8.33
2022-10-19T19:09:27.289Z,7.10
2022-10-19T19:11:58.339Z,8.10
2022-10-19T19:14:28.342Z,8.65
2022-10-19T19:16:58.095Z,5.23
2022-10-19T19:19:29.201Z,3.90
2022-10-19T19:22:01.627Z,4.67
2022-10-19T19:24:32.705Z,10.85
2022-10-19T19:27:02.459Z,7.50
2022-10-19T19:29:32.272Z,6.63
2022-10-19T19:32:02.538Z,5.90
2022-10-19T19:34:32.278Z,8.37
2022-10-19T19:37:04.102Z,6.45
2022-10-19T19:39:33.755Z,6.70
2022-10-19T19:42:05.296Z,4.50
2022-10-19T19:44:35.044Z,6.67
2022-10-19T19:47:05.750Z,5.87
2022-10-19T19:49:35.486Z,5.97
2022-10-19T19:52:06.559Z,8.07
2022-10-19T19:54:36.279Z,8.30
2022-10-19T19:57:07.593Z,6.97
2022-10-19T19:59:37.660Z,4.13
2022-10-19T20:02:07.671Z,9.63
2022-10-19T20:04:37.477Z,11.10
2022-10-19T20:07:06.963Z,5.90
2022-10-19T20:09:36.710Z,4.90
2022-10-19T20:12:08.073Z,10.55
2022-10-19T20:14:37.804Z,9.30
2022-10-19T20:17:07.549Z,8.90
2022-10-19T20:19:37.409Z,5.07
2022-10-19T20:22:07.545Z,5.90
2022-10-19T20:24:37.832Z,9.37
2022-10-19T20:27:07.663Z,8.73
2022-10-19T20:29:37.410Z,5.13
2022-10-19T20:32:08.341Z,6.07
2022-10-19T20:34:38.178Z,4.43
2022-10-19T20:37:07.943Z,8.60
2022-10-19T20:39:37.747Z,9.77
2022-10-19T20:42:08.622Z,6.28
2022-10-19T20:44:38.356Z,7.60
2022-10-19T20:47:07.899Z,6.50
2022-10-19T20:49:38.081Z,7.57
2022-10-19T20:52:08.739Z,8.43
2022-10-19T20:54:38.483Z,7.10
2022-10-19T20:57:08.229Z,8.60
2022-10-19T20:59:39.449Z,9.00
2022-10-19T21:05:20.892Z,9.78
2022-10-19T21:07:50.626Z,7.63
2022-10-19T21:10:20.371Z,7.93
2022-10-19T21:12:49.842Z,5.70
2022-10-19T21:15:19.586Z,3.58
2022-10-19T21:17:49.331Z,6.97
2022-10-19T21:20:20.245Z,9.07
2022-10-19T21:22:50.292Z,10.30
2022-10-19T21:25:19.897Z,5.93
2022-10-19T21:27:52.548Z,5.23
2022-10-19T21:30:22.630Z,7.68
2022-10-19T21:32:52.383Z,11.07
2022-10-19T21:35:21.811Z,8.38
2022-10-19T21:37:51.575Z,11.90
2022-10-19T21:40:21.335Z,8.70
2022-10-19T21:42:51.374Z,11.90
2022-10-19T21:45:35.761Z,6.23
2022-10-19T21:47:52.310Z,5.23
2022-10-19T21:50:22.028Z,6.20
2022-10-19T21:52:51.766Z,6.53
2022-10-19T21:55:21.497Z,6.30
2022-10-19T21:57:50.977Z,11.35
2022-10-19T22:00:20.540Z,6.65
2022-10-19T22:02:50.354Z,5.63
2022-10-19T22:05:19.809Z,6.47
2022-10-19T22:07:49.621Z,6.97
2022-10-19T22:10:19.318Z,7.10
2022-10-19T22:12:49.146Z,7.67
2022-10-19T22:15:18.874Z,7.13
2022-10-19T22:17:48.666Z,9.13
2022-10-19T22:20:18.427Z,11.24
2022-10-19T22:22:50.270Z,10.65
2022-10-19T22:25:19.071Z,10.28
2022-10-19T22:27:48.859Z,7.03
2022-10-19T22:30:18.777Z,12.03
2022-10-19T22:32:48.570Z,7.17
2022-10-19T22:35:18.394Z,7.70
2022-10-19T22:37:47.872Z,5.95
2022-10-19T22:40:17.603Z,9.95
2022-10-19T22:42:47.333Z,6.87
2022-10-19T22:45:17.041Z,8.87
2022-10-19T22:47:46.770Z,10.23
2022-10-19T22:50:17.248Z,9.74
2022-10-19T22:52:46.955Z,9.07
2022-10-19T22:55:16.589Z,7.55
2022-10-19T22:57:46.328Z,7.00
2022-10-19T23:00:17.661Z,8.93
2022-10-19T23:02:47.391Z,8.97
2022-10-19T23:05:16.971Z,10.07
2022-10-19T23:07:46.714Z,7.73
2022-10-19T23:10:17.853Z,8.12
2022-10-19T23:12:52.537Z,13.20
2022-10-19T23:15:22.509Z,7.27
2022-10-19T23:17:52.297Z,10.47
2022-10-19T23:20:21.730Z,7.87
2022-10-19T23:22:51.725Z,6.07
2022-10-19T23:25:21.497Z,7.42
2022-10-19T23:27:51.261Z,14.50
2022-10-19T23:30:21.082Z,5.53
2022-10-19T23:32:50.878Z,8.83
2022-10-19T23:35:20.630Z,10.32
2022-10-19T23:37:50.405Z,6.97
2022-10-19T23:40:20.074Z,8.55
2022-10-19T23:42:49.815Z,10.17
2022-10-19T23:45:19.610Z,8.43
2022-10-19T23:47:49.640Z,9.85
2022-10-19T23:50:19.396Z,7.90
2022-10-19T23:52:49.437Z,6.17
2022-10-19T23:55:19.146Z,7.95
2022-10-19T23:57:48.892Z,9.17
